Time;durP1;ratioP1;P1;durP2;ratioP2;P2;SDS_P1;SDS_P2;PMS_P1;PMS_P2;Temp;Humidity;BMP_temperature;BMP_pressure;BME280_temperature;BME280_humidity;BME280_pressure;Samples;Min_cycle;Max_cycle;Signal;HPM_P1;HPM_P2
2023/02/13 00:01:44;;;;;;;4.28;2.90;;;;;;;16.63;65.64;101643.28;7398570;19;20048;-57
2023/02/13 00:04:11;;;;;;;3.42;1.63;;;;;;;18.43;63.53;101636.84;7397604;19;20019;-57
2023/02/13 00:06:37;;;;;;;3.95;2.15;;;;;;;19.86;59.12;101628.16;7396812;19;20010;-58
2023/02/13 00:09:03;;;;;;;7.57;3.30;;;;;;;17.25;64.01;101634.22;7397628;19;20027;-57
2023/02/13 00:11:29;;;;;;;1.45;1.40;;;;;;;21.04;56.57;101635.16;7400823;19;20404;-57
2023/02/13 00:13:57;;;;;;;11.00;2.45;;;;;;;20.83;53.47;101631.66;7398310;19;20014;-57
2023/02/13 00:16:23;;;;;;;10.48;2.92;;;;;;;20.44;56.44;101633.41;7398414;19;20332;-57
2023/02/13 00:18:49;;;;;;;4.03;2.25;;;;;;;22.01;51.67;101623.25;7397734;19;20363;-57
2023/02/13 00:21:15;;;;;;;6.10;3.40;;;;;;;16.36;58.88;101634.13;7399844;19;20013;-57
2023/02/13 00:23:41;;;;;;;7.35;1.63;;;;;;;18.56;57.41;101631.69;7397872;19;20006;-57
2023/02/13 00:26:11;;;;;;;5.85;1.58;;;;;;;21.21;52.79;101621.09;7396867;19;20011;-57
2023/02/13 00:28:43;;;;;;;3.22;2.10;;;;;;;21.72;50.73;101615.16;7396770;19;20035;-57
2023/02/13 00:31:15;;;;;;;4.55;2.95;;;;;;;21.66;49.97;101622.84;7399620;19;20023;-58
2023/02/13 00:33:41;;;;;;;3.58;2.05;;;;;;;22.12;48.71;101616.81;7398199;19;20014;-58
2023/02/13 00:36:17;;;;;;;6.60;2.20;;;;;;;22.17;47.82;101619.66;7398037;19;20143;-57
2023/02/13 00:38:45;;;;;;;1.20;1.00;;;;;;;22.34;47.50;101619.69;7395310;19;20020;-58
2023/02/13 00:41:13;;;;;;;3.10;1.90;;;;;;;20.94;49.49;101620.38;7397096;19;20014;-57
2023/02/13 00:43:39;;;;;;;6.72;1.65;;;;;;;19.45;52.67;101625.34;7396899;19;20016;-58
2023/02/13 00:46:05;;;;;;;8.85;2.03;;;;;;;19.27;52.55;101622.78;7396470;19;20027;-57
2023/02/13 00:48:33;;;;;;;4.30;1.98;;;;;;;20.40;51.46;101613.03;7400517;19;20366;-57
2023/02/13 00:51:00;;;;;;;4.53;1.83;;;;;;;20.58;50.80;101612.66;7398471;19;20031;-58
2023/02/13 00:53:29;;;;;;;6.75;0.93;;;;;;;21.61;49.30;101609.44;7395648;19;20070;-58
2023/02/13 00:55:55;;;;;;;6.90;2.60;;;;;;;16.42;54.95;101613.31;7395752;19;20010;-57
2023/02/13 00:58:22;;;;;;;12.23;1.92;;;;;;;13.64;73.72;101622.78;7394550;19;20036;-57
2023/02/13 01:00:52;;;;;;;1.80;1.13;;;;;;;13.23;85.21;101627.84;7396535;19;20357;-57
2023/02/13 01:03:19;;;;;;;4.28;2.33;;;;;;;11.44;100.00;101623.59;7396545;19;20104;-57
2023/02/13 01:05:46;;;;;;;3.22;1.38;;;;;;;11.30;100.00;101626.75;7396011;19;20470;-58
2023/02/13 01:08:14;;;;;;;12.50;2.92;;;;;;;11.18;100.00;101630.22;7396451;19;20011;-58
2023/02/13 01:10:41;;;;;;;6.10;1.48;;;;;;;12.41;100.00;101631.66;7399908;19;20526;-58
2023/02/13 01:13:09;;;;;;;2.08;1.90;;;;;;;12.51;100.00;101628.53;7394853;19;20495;-58
2023/02/13 01:15:36;;;;;;;4.63;1.80;;;;;;;13.60;100.00;101627.72;7396300;19;20017;-58
2023/02/13 01:18:02;;;;;;;4.25;1.95;;;;;;;14.91;95.19;101628.41;7394825;19;20014;-58
2023/02/13 01:20:29;;;;;;;2.95;1.67;;;;;;;17.49;67.45;101618.13;7396908;19;20014;-58
2023/02/13 01:22:56;;;;;;;1.45;1.35;;;;;;;14.41;92.67;101621.19;7397029;19;20070;-58
2023/02/13 01:25:23;;;;;;;1.55;1.15;;;;;;;14.01;82.62;101617.50;7395638;19;20014;-58
2023/02/13 01:27:50;;;;;;;2.20;1.42;;;;;;;11.39;100.00;101622.09;7396185;19;20014;-58
2023/02/13 01:30:18;;;;;;;7.15;2.83;;;;;;;14.48;96.94;101620.91;7395951;19;20078;-58
2023/02/13 01:32:45;;;;;;;1.75;0.95;;;;;;;14.29;95.09;101616.44;7395528;19;20015;-58
2023/02/13 01:35:13;;;;;;;1.17;1.08;;;;;;;13.60;90.34;101613.72;7394316;19;20018;-58
2023/02/13 01:37:40;;;;;;;2.35;1.92;;;;;;;15.32;80.28;101613.06;7394826;19;20022;-57
2023/02/13 01:40:09;;;;;;;2.53;2.05;;;;;;;11.78;100.00;101623.13;7394446;19;20085;-57
2023/02/13 01:42:36;;;;;;;1.60;1.48;;;;;;;12.52;99.61;101615.31;7393444;19;20021;-58
2023/02/13 01:45:28;;;;;;;2.88;1.63;;;;;;;12.97;99.92;101617.91;7394379;19;20021;-57
2023/02/13 01:48:16;;;;;;;3.17;2.15;;;;;;;13.48;94.26;101620.16;7394259;19;20003;-58
2023/02/13 01:51:07;;;;;;;6.97;2.45;;;;;;;19.23;70.04;101602.41;7396659;19;20010;-58
2023/02/13 01:53:44;;;;;;;3.72;0.95;;;;;;;17.32;69.47;101608.53;7393631;19;20039;-58
2023/02/13 01:56:22;;;;;;;3.75;1.35;;;;;;;18.14;67.07;101609.44;7393703;19;20010;-58
2023/02/13 01:58:53;;;;;;;1.30;1.00;;;;;;;18.06;63.15;101602.59;7393451;19;20020;-55
2023/02/13 02:01:21;;;;;;;2.90;1.80;;;;;;;15.74;70.42;101606.41;7396630;19;20042;-58
2023/02/13 02:04:05;;;;;;;2.08;1.80;;;;;;;19.15;67.44;101598.47;7393958;19;20015;-58
2023/02/13 02:06:43;;;;;;;7.28;1.63;;;;;;;14.84;77.45;101607.03;7393345;19;20011;-58
2023/02/13 02:09:22;;;;;;;1.00;0.98;;;;;;;14.14;81.12;101607.00;7391551;19;20029;-57
2023/02/13 02:11:59;;;;;;;3.88;1.88;;;;;;;16.51;79.52;101595.66;7396884;19;20006;-58
2023/02/13 02:14:26;;;;;;;2.65;0.80;;;;;;;16.81;66.43;101602.25;7393264;19;20006;-58
2023/02/13 02:16:55;;;;;;;1.65;0.98;;;;;;;14.27;77.91;101602.84;7393401;19;20019;-57
2023/02/13 02:19:48;;;;;;;1.85;1.70;;;;;;;12.92;91.70;101594.09;7392940;19;20100;-58
2023/02/13 02:22:33;;;;;;;4.93;1.75;;;;;;;12.76;95.97;101608.19;7392764;19;20010;-58
2023/02/13 02:25:17;;;;;;;1.17;1.08;;;;;;;12.77;96.87;101599.38;7395353;19;20014;-58
2023/02/13 02:28:05;;;;;;;2.13;0.68;;;;;;;11.91;100.00;101599.56;7391671;19;20373;-58
2023/02/13 02:30:38;;;;;;;1.27;0.93;;;;;;;12.09;100.00;101602.66;7394471;19;20400;-57
2023/02/13 02:33:35;;;;;;;3.05;1.35;;;;;;;15.50;90.17;101590.66;7391833;19;20014;-58
2023/02/13 02:36:20;;;;;;;2.47;1.30;;;;;;;18.30;69.17;101587.66;7395390;19;20006;-57
2023/02/13 02:39:03;;;;;;;2.15;1.50;;;;;;;18.01;66.86;101589.19;7395516;19;20009;-58
2023/02/13 02:41:45;;;;;;;2.88;2.15;;;;;;;17.99;65.37;101594.53;7394006;19;20007;-57
2023/02/13 02:44:35;;;;;;;1.58;1.15;;;;;;;19.95;63.27;101579.91;7389875;19;20023;-57
2023/02/13 02:50:15;;;;;;;1.70;0.80;;;;;;;18.14;59.65;101580.44;7391430;19;20377;-57
2023/02/13 02:53:05;;;;;;;1.80;0.98;;;;;;;18.54;60.48;101577.00;7391345;19;20082;-58
2023/02/13 02:55:57;;;;;;;2.60;2.10;;;;;;;18.72;59.61;101576.78;7391929;19;20017;-57
2023/02/13 03:06:53;;;;;;;2.47;1.25;;;;;;;22.25;49.13;101566.78;7397513;19;19933;-58
2023/02/13 03:15:04;;;;;;;2.95;1.73;;;;;;;20.96;50.32;101561.16;7399330;19;20043;-57
2023/02/13 03:23:27;;;;;;;3.88;1.27;;;;;;;11.63;99.71;101583.59;7399219;19;20014;-58
2023/02/13 03:25:59;;;;;;;3.45;1.15;;;;;;;11.06;100.00;101577.97;7399851;19;20087;-55
2023/02/13 03:32:09;;;;;;;0.47;0.47;;;;;;;11.20;100.00;101580.38;7398313;19;20018;-57
2023/02/13 03:37:55;;;;;;;1.63;0.50;;;;;;;11.96;100.00;101573.91;7404159;19;20015;-57
2023/02/13 03:43:44;;;;;;;2.25;1.38;;;;;;;11.95;100.00;101577.91;7398809;19;20120;-58
2023/02/13 03:46:11;;;;;;;1.00;0.98;;;;;;;11.84;100.00;101588.63;7397830;19;20328;-57
2023/02/13 03:51:41;;;;;;;2.97;1.05;;;;;;;11.84;100.00;101582.25;7403395;19;20374;-57
2023/02/13 04:00:00;;;;;;;1.85;1.73;;;;;;;11.58;100.00;101575.78;7399205;19;20030;-57
2023/02/13 04:02:33;;;;;;;5.40;1.83;;;;;;;11.82;100.00;101579.91;7397734;19;20014;-57
2023/02/13 04:05:09;;;;;;;0.73;0.70;;;;;;;11.81;100.00;101581.13;7395944;19;20015;-57
2023/02/13 04:07:36;;;;;;;2.22;1.17;;;;;;;12.00;100.00;101577.38;7398106;19;20011;-57
2023/02/13 04:10:06;;;;;;;0.65;0.65;;;;;;;13.50;100.00;101577.72;7398225;19;20013;-57
2023/02/13 04:12:35;;;;;;;0.50;0.50;;;;;;;12.22;100.00;101580.31;7394845;19;20017;-57
2023/02/13 04:15:11;;;;;;;8.50;2.15;;;;;;;13.07;100.00;101578.41;7397571;19;20120;-57
2023/02/13 04:17:49;;;;;;;3.83;1.30;;;;;;;18.29;77.51;101567.13;7394843;19;20022;-57
2023/02/13 04:20:15;;;;;;;2.28;1.40;;;;;;;13.11;99.29;101569.91;7397844;19;20352;-58
2023/02/13 04:22:43;;;;;;;6.80;1.08;;;;;;;13.43;100.00;101578.75;7395410;19;20343;-57
2023/02/13 04:25:11;;;;;;;2.05;1.90;;;;;;;12.62;100.00;101575.09;7395904;19;20015;-57
2023/02/13 04:27:38;;;;;;;3.00;1.58;;;;;;;13.31;100.00;101559.22;7397553;19;20011;-57
2023/02/13 04:30:05;;;;;;;1.30;0.98;;;;;;;14.44;93.68;101561.41;7397948;19;20042;-57
2023/02/13 04:32:31;;;;;;;2.78;2.10;;;;;;;16.07;84.79;101550.31;7398128;19;20482;-57
2023/02/13 04:34:57;;;;;;;1.15;0.85;;;;;;;16.53;79.71;101548.94;7396059;19;20014;-57
2023/02/13 04:37:23;;;;;;;2.72;1.77;;;;;;;16.87;75.16;101555.34;7399543;19;20487;-57
2023/02/13 04:39:50;;;;;;;2.85;1.70;;;;;;;16.31;78.17;101550.41;7396136;19;20062;-57
2023/02/13 04:42:16;;;;;;;2.50;1.42;;;;;;;17.92;71.45;101552.63;7395973;19;20014;-58
2023/02/13 04:44:42;;;;;;;1.67;1.35;;;;;;;15.72;77.09;101557.59;7396385;19;20021;-57
2023/02/13 04:47:08;;;;;;;3.15;1.63;;;;;;;19.68;67.79;101545.19;7395513;19;20076;-57
2023/02/13 04:49:34;;;;;;;8.45;1.08;;;;;;;18.76;67.83;101546.31;7396245;19;20467;-57
2023/02/13 04:52:00;;;;;;;2.47;1.38;;;;;;;20.50;61.02;101546.47;7394561;19;20014;-57
2023/02/13 04:54:27;;;;;;;1.10;1.00;;;;;;;16.85;72.62;101555.81;7396553;19;20029;-57
2023/02/13 04:56:53;;;;;;;3.03;2.22;;;;;;;14.86;79.25;101542.84;7395912;19;20011;-58
2023/02/13 04:59:19;;;;;;;2.78;1.83;;;;;;;14.26;83.41;101550.06;7395690;19;20014;-58
2023/02/13 05:01:45;;;;;;;5.10;2.08;;;;;;;14.49;85.55;101537.59;7395120;19;20018;-57
2023/02/13 05:04:15;;;;;;;4.45;1.23;;;;;;;14.21;87.37;101543.03;7393805;19;20386;-58
2023/02/13 05:06:41;;;;;;;5.97;2.13;;;;;;;14.38;87.09;101538.00;7395240;19;20014;-57
2023/02/13 05:09:09;;;;;;;7.13;2.35;;;;;;;16.11;77.80;101533.31;7395054;19;20478;-57
2023/02/13 05:11:35;;;;;;;2.10;1.77;;;;;;;19.12;68.19;101528.84;7397270;19;20010;-57
2023/02/13 05:14:01;;;;;;;9.38;2.75;;;;;;;20.01;62.40;101527.03;7396341;19;20014;-57
2023/02/13 05:16:27;;;;;;;13.98;1.85;;;;;;;18.62;64.34;101533.03;7394793;19;20094;-57
2023/02/13 05:18:54;;;;;;;3.03;2.38;;;;;;;18.33;64.85;101533.06;7394652;19;20019;-57
2023/02/13 05:24:05;;;;;;;3.00;1.42;;;;;;;18.45;63.60;101541.22;7392817;19;20460;-58
2023/02/13 05:26:31;;;;;;;1.55;1.40;;;;;;;18.50;63.52;101537.72;7394866;19;20010;-58
2023/02/13 05:31:42;;;;;;;4.10;2.10;;;;;;;18.79;61.88;101539.69;7395592;19;20018;-57
2023/02/13 05:34:08;;;;;;;6.18;3.50;;;;;;;18.79;61.55;101531.22;7393314;19;20014;-57
2023/02/13 05:36:34;;;;;;;2.55;1.20;;;;;;;18.84;61.50;101533.38;7395698;19;20006;-57
2023/02/13 05:39:01;;;;;;;4.35;0.85;;;;;;;19.22;60.62;101527.44;7394976;19;20014;-58
2023/02/13 05:41:27;;;;;;;7.20;1.23;;;;;;;19.06;60.84;101511.03;7395755;19;20041;-58
2023/02/13 05:43:53;;;;;;;4.93;1.85;;;;;;;19.28;60.16;101516.97;7393677;19;20010;-58
2023/02/13 05:46:19;;;;;;;4.70;2.10;;;;;;;20.41;56.92;101504.22;7395261;19;20336;-57
2023/02/13 05:48:45;;;;;;;1.95;1.13;;;;;;;20.71;56.23;101501.81;7392834;19;20018;-57
2023/02/13 05:51:12;;;;;;;4.80;1.55;;;;;;;20.08;56.64;101515.22;7397472;19;20010;-57
2023/02/13 05:53:38;;;;;;;4.57;1.42;;;;;;;20.35;56.00;101500.56;7392723;19;20344;-57
2023/02/13 05:56:05;;;;;;;5.22;1.50;;;;;;;20.04;56.04;101509.03;7392394;19;20014;-58
2023/02/13 05:58:32;;;;;;;5.10;1.75;;;;;;;21.05;54.48;101503.59;7394275;19;20031;-57
2023/02/13 06:00:59;;;;;;;9.25;1.77;;;;;;;20.60;53.80;101508.19;7396534;19;20015;-58
2023/02/13 06:03:27;;;;;;;5.43;1.15;;;;;;;20.66;54.10;101513.91;7394634;19;20455;-58
2023/02/13 06:05:54;;;;;;;2.72;2.10;;;;;;;20.91;53.61;101510.16;7395057;19;20038;-58
2023/02/13 06:08:21;;;;;;;1.38;1.15;;;;;;;20.94;53.36;101512.75;7392786;19;20510;-58
2023/02/13 06:10:48;;;;;;;4.43;2.85;;;;;;;20.86;53.37;101508.84;7396257;19;20011;-57
2023/02/13 06:13:15;;;;;;;4.30;2.15;;;;;;;20.92;53.62;101503.22;7393343;19;20523;-57
2023/02/13 06:15:41;;;;;;;4.60;2.75;;;;;;;21.28;52.28;101519.38;7392616;19;20011;-57
2023/02/13 06:18:08;;;;;;;3.20;1.05;;;;;;;21.28;51.58;101512.94;7393833;19;20011;-58
2023/02/13 06:20:35;;;;;;;2.17;2.08;;;;;;;21.14;52.16;101523.94;7393800;19;20007;-57
2023/02/13 06:23:01;;;;;;;3.15;2.45;;;;;;;20.11;53.50;101519.91;7391953;19;20021;-58
2023/02/13 06:25:28;;;;;;;17.05;3.85;;;;;;;19.76;54.67;101516.47;7393534;19;20077;-58
2023/02/13 06:27:54;;;;;;;5.40;2.10;;;;;;;19.83;54.64;101516.03;7396241;19;20035;-57
2023/02/13 06:30:21;;;;;;;3.20;2.17;;;;;;;20.15;54.13;101517.63;7395360;19;20074;-58
2023/02/13 06:32:48;;;;;;;3.05;1.67;;;;;;;20.89;52.88;101524.84;7393117;19;20118;-57
2023/02/13 06:35:15;;;;;;;5.60;2.08;;;;;;;21.25;52.42;101519.59;7392783;19;20011;-57
2023/02/13 06:37:44;;;;;;;5.03;1.98;;;;;;;21.62;51.73;101523.84;7392967;19;20033;-58
2023/02/13 06:40:12;;;;;;;3.72;1.70;;;;;;;21.50;51.26;101518.66;7393263;19;20027;-57
2023/02/13 06:42:40;;;;;;;14.25;2.20;;;;;;;21.72;51.31;101519.47;7392610;19;20011;-57
2023/02/13 06:45:06;;;;;;;5.78;1.63;;;;;;;21.94;50.27;101507.41;7392278;19;20026;-57
2023/02/13 06:47:33;;;;;;;10.80;3.50;;;;;;;21.87;50.41;101514.38;7395058;19;20010;-57
2023/02/13 06:49:59;;;;;;;3.10;1.70;;;;;;;21.77;49.65;101520.78;7395753;19;20038;-58
2023/02/13 06:52:25;;;;;;;7.13;2.63;;;;;;;21.62;50.17;101517.41;7392909;19;20369;-57
2023/02/13 06:54:51;;;;;;;9.13;2.50;;;;;;;21.55;50.10;101515.09;7390492;19;20017;-57
2023/02/13 06:57:17;;;;;;;11.43;2.35;;;;;;;21.48;50.07;101509.91;7391284;19;20029;-58
2023/02/13 06:59:43;;;;;;;3.60;1.90;;;;;;;21.21;50.96;101514.19;7392763;19;20033;-57
2023/02/13 07:02:10;;;;;;;16.75;3.35;;;;;;;21.51;50.45;101514.53;7391270;19;20015;-57
2023/02/13 07:04:37;;;;;;;3.63;1.90;;;;;;;21.08;50.78;101514.66;7393009;19;20019;-58
2023/02/13 07:07:03;;;;;;;14.95;3.60;;;;;;;21.51;50.59;101517.38;7392872;19;20075;-57
2023/02/13 07:09:30;;;;;;;3.78;2.05;;;;;;;22.04;49.62;101508.72;7393066;19;20018;-57
2023/02/13 07:11:57;;;;;;;5.10;1.85;;;;;;;22.76;48.38;101499.38;7394139;19;20007;-57
2023/02/13 07:14:23;;;;;;;7.07;1.52;;;;;;;22.29;48.19;101515.41;7395974;19;20118;-57
2023/02/13 07:16:49;;;;;;;3.70;1.42;;;;;;;21.92;48.74;101504.31;7392154;19;20015;-57
2023/02/13 07:19:16;;;;;;;8.32;2.53;;;;;;;22.14;48.71;101500.72;7390290;19;20049;-57
2023/02/13 07:21:42;;;;;;;7.97;2.85;;;;;;;22.22;48.16;101499.69;7390608;19;20049;-57
2023/02/13 07:24:08;;;;;;;19.65;4.00;;;;;;;21.79;48.42;101495.50;7395080;19;20003;-58
2023/02/13 07:26:34;;;;;;;9.23;3.05;;;;;;;20.69;49.46;101496.66;7395395;19;20018;-58
2023/02/13 07:29:05;;;;;;;5.07;2.45;;;;;;;20.33;50.93;101484.09;7394545;19;20014;-58
2023/02/13 07:31:32;;;;;;;6.47;3.25;;;;;;;20.77;49.83;101485.66;7395814;19;20039;-57
2023/02/13 07:33:59;;;;;;;4.57;2.42;;;;;;;22.07;48.94;101479.31;7394878;19;20027;-58
2023/02/13 07:36:26;;;;;;;5.28;2.42;;;;;;;21.58;48.96;101480.81;7394916;19;20017;-57
2023/02/13 07:38:53;;;;;;;14.68;3.00;;;;;;;21.89;48.29;101477.00;7390490;19;20015;-57
2023/02/13 07:41:19;;;;;;;10.05;2.35;;;;;;;24.38;45.87;101483.66;7392252;19;20014;-57
2023/02/13 07:43:45;;;;;;;6.50;1.33;;;;;;;23.92;44.01;101473.94;7391464;19;20017;-57
2023/02/13 07:46:12;;;;;;;3.45;1.92;;;;;;;22.30;46.47;101489.38;7390358;19;20338;-57
2023/02/13 07:48:38;;;;;;;6.85;2.53;;;;;;;20.40;49.03;101494.16;7397313;19;20015;-55
2023/02/13 07:51:04;;;;;;;6.18;1.98;;;;;;;19.18;52.41;101497.84;7400909;19;20010;-57
2023/02/13 07:53:31;;;;;;;3.92;1.63;;;;;;;19.95;51.95;101489.41;7396098;19;20503;-57
2023/02/13 07:55:57;;;;;;;3.45;2.33;;;;;;;20.67;50.82;101499.22;7397124;19;20018;-58
2023/02/13 07:58:23;;;;;;;12.02;2.75;;;;;;;20.89;50.76;101502.19;7400024;19;20471;-55
2023/02/13 08:00:50;;;;;;;9.57;2.78;;;;;;;22.63;48.16;101500.69;7398669;19;20014;-58
2023/02/13 08:03:16;;;;;;;7.55;3.30;;;;;;;23.19;46.85;101506.97;7401956;19;20525;-55
2023/02/13 08:05:47;;;;;;;5.32;1.95;;;;;;;22.49;46.98;101512.31;7396913;19;20550;-56
2023/02/13 08:08:14;;;;;;;8.73;1.80;;;;;;;23.47;45.90;101509.69;7398243;19;20017;-55
2023/02/13 08:13:26;;;;;;;4.82;1.67;;;;;;;20.86;51.14;101516.56;7402114;19;20035;-55
2023/02/13 08:15:52;;;;;;;6.70;3.42;;;;;;;21.92;49.32;101514.91;7394207;19;20417;-56
2023/02/13 08:18:18;;;;;;;10.25;1.40;;;;;;;22.33;47.84;101502.50;7396555;19;20014;-56
2023/02/13 08:20:44;;;;;;;7.15;1.98;;;;;;;20.11;51.23;101511.41;7398624;19;20015;-56
2023/02/13 08:23:11;;;;;;;3.45;2.13;;;;;;;22.40;48.29;101510.50;7396684;19;20313;-56
2023/02/13 08:25:37;;;;;;;2.03;1.50;;;;;;;22.74;47.11;101513.31;7397381;19;20015;-56
2023/02/13 08:28:04;;;;;;;9.90;1.90;;;;;;;21.55;48.81;101507.34;7397647;19;20015;-56
2023/02/13 08:30:30;;;;;;;2.30;1.55;;;;;;;20.86;49.50;101506.03;7400432;19;20020;-56
2023/02/13 08:32:57;;;;;;;18.40;3.80;;;;;;;21.22;49.62;101517.81;7396152;19;20043;-56
2023/02/13 08:35:25;;;;;;;6.03;2.10;;;;;;;21.89;48.98;101523.13;7395516;19;20019;-56
2023/02/13 08:37:52;;;;;;;10.73;3.67;;;;;;;22.31;47.49;101513.59;7399262;19;20066;-56
2023/02/13 08:40:19;;;;;;;10.77;2.95;;;;;;;22.79;46.71;101512.50;7397236;19;20014;-56
2023/02/13 08:42:45;;;;;;;4.80;2.95;;;;;;;23.05;46.48;101512.94;7396859;19;20024;-56
2023/02/13 08:45:11;;;;;;;10.32;3.28;;;;;;;21.79;48.30;101512.53;7397884;19;20014;-56
2023/02/13 08:47:38;;;;;;;8.23;2.42;;;;;;;22.29;47.11;101519.03;7396285;19;20010;-56
2023/02/13 08:50:05;;;;;;;5.38;2.75;;;;;;;22.99;45.75;101510.13;7398403;19;20014;-56
2023/02/13 08:52:32;;;;;;;8.95;1.90;;;;;;;23.17;45.84;101514.47;7394420;19;20014;-56
2023/02/13 08:54:58;;;;;;;30.25;6.03;;;;;;;22.60;45.75;101512.31;7401273;19;20031;-56
2023/02/13 08:57:24;;;;;;;8.40;2.40;;;;;;;23.22;45.22;101513.66;7395681;19;20086;-56
2023/02/13 08:59:50;;;;;;;11.70;2.97;;;;;;;20.42;49.45;101505.78;7397487;19;20086;-56
2023/02/13 09:02:16;;;;;;;4.78;3.00;;;;;;;21.83;47.38;101507.41;7399397;19;20339;-56
2023/02/13 09:04:42;;;;;;;7.28;3.72;;;;;;;23.61;45.14;101508.56;7395146;19;20554;-56
2023/02/13 09:07:08;;;;;;;10.88;4.18;;;;;;;22.91;45.42;101502.69;7393778;19;20018;-56
2023/02/13 09:09:35;;;;;;;7.20;2.85;;;;;;;20.82;48.68;101499.81;7396055;19;20015;-56
2023/02/13 09:12:01;;;;;;;12.32;1.95;;;;;;;21.22;48.18;101500.81;7399322;19;20010;-56
2023/02/13 09:14:27;;;;;;;9.90;2.95;;;;;;;22.18;47.11;101501.22;7395784;19;20015;-56
2023/02/13 09:16:53;;;;;;;17.58;4.55;;;;;;;21.39;47.43;101495.97;7394911;19;20018;-56
2023/02/13 09:19:19;;;;;;;5.13;2.17;;;;;;;21.71;47.63;101502.97;7393017;19;20011;-56
2023/02/13 09:21:45;;;;;;;9.50;2.28;;;;;;;21.78;46.59;101500.44;7394562;19;20123;-56
2023/02/13 09:24:12;;;;;;;2.92;2.30;;;;;;;21.68;46.20;101498.31;7394283;19;20014;-56
2023/02/13 09:26:38;;;;;;;6.88;2.75;;;;;;;21.70;46.38;101498.63;7393724;19;20022;-56
2023/02/13 09:29:04;;;;;;;5.20;1.77;;;;;;;21.44;47.12;101500.88;7393425;19;20707;-56
2023/02/13 09:31:30;;;;;;;10.68;4.03;;;;;;;21.44;47.33;101498.03;7391936;19;20032;-56
2023/02/13 09:33:56;;;;;;;8.98;3.28;;;;;;;20.30;48.69;101493.59;7394065;19;20027;-56
2023/02/13 09:36:23;;;;;;;15.65;3.45;;;;;;;21.33;48.11;101495.19;7396712;19;20094;-56
2023/02/13 09:38:55;;;;;;;5.00;1.95;;;;;;;22.05;46.39;101496.06;7395155;19;20007;-56
2023/02/13 09:41:35;;;;;;;7.38;2.47;;;;;;;21.44;47.41;101487.47;7397887;19;20459;-56
2023/02/13 09:44:32;;;;;;;5.80;2.17;;;;;;;21.91;46.73;101488.59;7394818;19;20022;-56
2023/02/13 09:47:27;;;;;;;9.40;1.67;;;;;;;21.61;47.31;101501.69;7395767;19;20467;-56
2023/02/13 09:50:06;;;;;;;15.50;3.22;;;;;;;22.23;46.57;101500.47;7393672;19;20041;-56
2023/02/13 09:52:36;;;;;;;9.65;2.95;;;;;;;22.85;45.31;101499.84;7393087;19;20038;-56
2023/02/13 09:55:13;;;;;;;9.50;2.38;;;;;;;22.15;45.70;101497.38;7393665;19;20468;-56
2023/02/13 09:57:46;;;;;;;6.68;3.25;;;;;;;19.04;47.63;101496.66;7393405;19;20011;-56
2023/02/13 10:00:13;;;;;;;5.00;3.00;;;;;;;22.50;46.05;101491.16;7395457;19;20018;-56
2023/02/13 10:02:45;;;;;;;4.07;2.15;;;;;;;23.01;44.13;101489.72;7392150;19;20024;-56
2023/02/13 10:05:14;;;;;;;5.03;1.85;;;;;;;22.13;45.71;101480.09;7394778;19;20013;-56
2023/02/13 10:07:54;;;;;;;10.52;3.75;;;;;;;23.28;44.03;101478.19;7394269;19;20038;-56
2023/02/13 10:10:27;;;;;;;12.57;3.03;;;;;;;22.46;43.51;101491.38;7394606;19;20018;-56
2023/02/13 10:12:53;;;;;;;4.47;2.40;;;;;;;21.44;45.39;101487.47;7393715;19;20018;-56
2023/02/13 10:15:19;;;;;;;7.38;3.38;;;;;;;19.11;48.37;101482.09;7393583;19;20035;-55
2023/02/13 10:17:53;;;;;;;7.97;3.40;;;;;;;13.24;66.17;101512.69;7391941;19;20042;-56
2023/02/13 10:20:28;;;;;;;3.35;2.05;;;;;;;20.93;52.07;101493.44;7395002;19;20400;-56
2023/02/13 10:23:16;;;;;;;7.45;3.47;;;;;;;20.39;50.06;101489.78;7393052;19;20399;-57
2023/02/13 10:25:54;;;;;;;7.50;1.88;;;;;;;23.21;47.61;101486.53;7393261;19;20389;-56
2023/02/13 10:28:28;;;;;;;8.77;3.70;;;;;;;23.11;45.82;101482.44;7392227;19;20011;-56
2023/02/13 10:31:01;;;;;;;3.75;1.67;;;;;;;23.91;44.93;101478.06;7396853;19;20011;-56
2023/02/13 10:33:33;;;;;;;7.93;2.38;;;;;;;24.40;44.03;101481.03;7393831;19;20506;-56
2023/02/13 10:36:09;;;;;;;4.47;2.55;;;;;;;16.21;54.26;101499.06;7394918;19;20011;-56
2023/02/13 10:39:05;;;;;;;6.93;3.63;;;;;;;18.59;51.90;101491.69;7391890;19;20006;-56
2023/02/13 10:41:53;;;;;;;6.32;2.63;;;;;;;24.43;43.97;101485.69;7394561;19;20010;-56
2023/02/13 10:44:28;;;;;;;8.48;2.45;;;;;;;25.40;41.73;101472.81;7393243;19;20011;-56
2023/02/13 10:47:28;;;;;;;5.40;2.00;;;;;;;25.86;39.42;101473.72;7392622;19;20010;-56
2023/02/13 10:50:19;;;;;;;5.10;1.92;;;;;;;19.48;44.67;101488.72;7394559;19;20027;-56
2023/02/13 10:52:54;;;;;;;8.57;3.70;;;;;;;15.26;55.69;101502.66;7394933;19;20018;-56
2023/02/13 10:55:23;;;;;;;10.13;2.60;;;;;;;12.53;85.08;101505.13;7392697;19;20062;-56
2023/02/13 10:58:00;;;;;;;5.75;2.53;;;;;;;11.20;100.00;101505.09;7392381;19;20011;-56
2023/02/13 11:00:34;;;;;;;7.72;3.03;;;;;;;11.53;100.00;101495.41;7395963;19;20543;-56
2023/02/13 11:03:00;;;;;;;4.82;2.65;;;;;;;16.35;83.43;101492.75;7397219;19;20018;-56
2023/02/13 11:05:35;;;;;;;7.75;2.53;;;;;;;21.53;58.21;101490.06;7394922;19;20440;-56
2023/02/13 11:08:02;;;;;;;4.72;2.53;;;;;;;14.75;74.63;101486.41;7392639;19;20018;-56
2023/02/13 11:10:28;;;;;;;9.80;3.53;;;;;;;13.51;91.46;101487.69;7394758;19;20021;-56
2023/02/13 11:12:54;;;;;;;10.20;3.65;;;;;;;12.79;94.57;101489.88;7391119;19;20014;-56
2023/02/13 11:15:25;;;;;;;7.25;3.00;;;;;;;13.16;97.25;101483.41;7391298;19;20087;-56
2023/02/13 11:17:55;;;;;;;7.47;2.13;;;;;;;19.63;66.63;101472.44;7389385;19;20066;-56
2023/02/13 11:20:31;;;;;;;9.10;2.80;;;;;;;13.51;83.08;101473.69;7393121;19;20082;-56
2023/02/13 11:23:17;;;;;;;8.45;3.47;;;;;;;12.66;95.69;101475.13;7395071;19;20011;-56
2023/02/13 11:25:55;;;;;;;10.23;3.38;;;;;;;12.13;100.00;101477.66;7400896;19;20045;-56
2023/02/13 11:28:22;;;;;;;10.07;3.45;;;;;;;17.61;78.50;101467.78;7399687;19;20019;-56
2023/02/13 11:30:48;;;;;;;10.30;3.88;;;;;;;24.41;52.32;101448.38;7402546;19;20096;-56
2023/02/13 11:33:25;;;;;;;16.08;4.75;;;;;;;23.06;45.16;101457.66;7399056;19;20006;-56
2023/02/13 11:36:15;;;;;;;10.35;2.75;;;;;;;19.67;50.51;101453.19;7400704;19;20014;-56
2023/02/13 11:38:42;;;;;;;6.35;1.88;;;;;;;11.17;100.00;101472.53;7399234;19;20501;-56
2023/02/13 11:41:14;;;;;;;6.13;2.47;;;;;;;12.57;100.00;101467.44;7399700;19;20044;-56
2023/02/13 11:44:00;;;;;;;18.05;3.70;;;;;;;13.10;100.00;101465.66;7399641;19;20463;-56
2023/02/13 11:46:47;;;;;;;9.50;2.80;;;;;;;10.90;100.00;101464.47;7399080;19;20029;-56
2023/02/13 11:49:24;;;;;;;9.95;2.47;;;;;;;10.09;100.00;101466.47;7397249;19;20019;-56
2023/02/13 11:51:52;;;;;;;7.50;4.05;;;;;;;9.93;100.00;101464.47;7396338;19;20011;-56
2023/02/13 11:54:29;;;;;;;6.40;3.90;;;;;;;10.47;100.00;101459.22;7398476;19;20015;-56
2023/02/13 11:56:59;;;;;;;4.10;2.50;;;;;;;9.92;100.00;101453.75;7397869;19;20011;-56
2023/02/13 11:59:32;;;;;;;8.27;2.17;;;;;;;10.02;100.00;101449.16;7397979;19;20015;-56
2023/02/13 12:02:20;;;;;;;14.45;4.07;;;;;;;10.09;100.00;101451.78;7397149;19;20019;-56
2023/02/13 12:04:49;;;;;;;5.75;3.10;;;;;;;10.83;100.00;101447.19;7397750;19;20007;-56
2023/02/13 12:07:22;;;;;;;17.67;4.03;;;;;;;11.05;100.00;101442.56;7397646;19;20021;-56
2023/02/13 12:10:26;;;;;;;16.23;4.53;;;;;;;11.54;100.00;101438.38;7399251;19;20014;-56
2023/02/13 12:12:55;;;;;;;9.23;2.72;;;;;;;12.37;100.00;101430.59;7393481;19;20031;-56
2023/02/13 12:15:31;;;;;;;10.63;2.65;;;;;;;12.70;100.00;101437.44;7396437;19;20018;-56
2023/02/13 12:18:20;;;;;;;16.30;3.88;;;;;;;10.13;100.00;101439.38;7396822;19;20348;-56
2023/02/13 12:21:12;;;;;;;16.55;4.60;;;;;;;11.75;100.00;101434.19;7399724;19;20022;-56
2023/02/13 12:23:56;;;;;;;5.70;1.80;;;;;;;12.51;100.00;101434.94;7396557;19;20031;-56
2023/02/13 12:27:06;;;;;;;6.05;2.83;;;;;;;12.60;100.00;101441.41;7394500;19;20341;-56
2023/02/13 12:29:35;;;;;;;8.07;4.32;;;;;;;12.58;100.00;101445.88;7395114;19;20036;-56